sensor_id;sensor_type;location;lat;lon;timestamp;P1;durP1;ratioP1;P2;durP2;ratioP2
75005;SDS011;63553;51.814;4.600;2024-03-08T00:02:22;30.17;;;12.05;;
75005;SDS011;63553;51.814;4.600;2024-03-08T00:04:48;21.27;;;9.48;;
75005;SDS011;63553;51.814;4.600;2024-03-08T00:07:13;24.97;;;10.60;;
75005;SDS011;63553;51.814;4.600;2024-03-08T00:09:38;22.20;;;9.83;;
75005;SDS011;63553;51.814;4.600;2024-03-08T00:12:04;29.45;;;11.88;;
75005;SDS011;63553;51.814;4.600;2024-03-08T00:14:29;22.30;;;9.82;;
75005;SDS011;63553;51.814;4.600;2024-03-08T00:16:55;23.23;;;10.20;;
75005;SDS011;63553;51.814;4.600;2024-03-08T00:19:20;18.63;;;8.83;;
75005;SDS011;63553;51.814;4.600;2024-03-08T00:21:45;27.03;;;10.23;;
75005;SDS011;63553;51.814;4.600;2024-03-08T00:24:11;33.23;;;12.07;;
75005;SDS011;63553;51.814;4.600;2024-03-08T00:26:37;30.38;;;11.25;;
75005;SDS011;63553;51.814;4.600;2024-03-08T00:29:02;27.48;;;10.93;;
75005;SDS011;63553;51.814;4.600;2024-03-08T00:31:28;25.80;;;10.80;;
75005;SDS011;63553;51.814;4.600;2024-03-08T00:33:55;11.90;;;6.55;;
75005;SDS011;63553;51.814;4.600;2024-03-08T00:36:21;22.27;;;8.15;;
75005;SDS011;63553;51.814;4.600;2024-03-08T00:38:47;23.20;;;9.90;;
75005;SDS011;63553;51.814;4.600;2024-03-08T00:41:13;22.35;;;8.90;;
75005;SDS011;63553;51.814;4.600;2024-03-08T00:43:38;26.57;;;11.10;;
75005;SDS011;63553;51.814;4.600;2024-03-08T00:46:04;24.30;;;10.18;;
75005;SDS011;63553;51.814;4.600;2024-03-08T00:48:29;16.73;;;7.87;;
75005;SDS011;63553;51.814;4.600;2024-03-08T00:50:55;27.63;;;11.43;;
75005;SDS011;63553;51.814;4.600;2024-03-08T00:53:21;23.33;;;9.18;;
75005;SDS011;63553;51.814;4.600;2024-03-08T00:55:46;19.37;;;8.13;;
75005;SDS011;63553;51.814;4.600;2024-03-08T00:58:12;21.98;;;9.60;;
75005;SDS011;63553;51.814;4.600;2024-03-08T01:00:38;25.75;;;9.68;;
75005;SDS011;63553;51.814;4.600;2024-03-08T01:03:06;23.95;;;8.80;;
75005;SDS011;63553;51.814;4.600;2024-03-08T01:05:32;23.17;;;10.63;;
75005;SDS011;63553;51.814;4.600;2024-03-08T01:07:57;23.58;;;9.65;;
75005;SDS011;63553;51.814;4.600;2024-03-08T01:10:23;22.23;;;8.35;;
75005;SDS011;63553;51.814;4.600;2024-03-08T01:12:48;25.30;;;10.50;;
75005;SDS011;63553;51.814;4.600;2024-03-08T01:15:14;24.00;;;9.63;;
75005;SDS011;63553;51.814;4.600;2024-03-08T01:17:40;18.05;;;8.63;;
75005;SDS011;63553;51.814;4.600;2024-03-08T01:20:06;29.40;;;10.65;;
75005;SDS011;63553;51.814;4.600;2024-03-08T01:22:32;25.42;;;10.45;;
75005;SDS011;63553;51.814;4.600;2024-03-08T01:24:58;24.85;;;10.27;;
75005;SDS011;63553;51.814;4.600;2024-03-08T01:27:23;21.53;;;10.33;;
75005;SDS011;63553;51.814;4.600;2024-03-08T01:29:49;18.90;;;8.77;;
75005;SDS011;63553;51.814;4.600;2024-03-08T01:32:15;28.50;;;11.77;;
75005;SDS011;63553;51.814;4.600;2024-03-08T01:34:41;24.35;;;10.25;;
75005;SDS011;63553;51.814;4.600;2024-03-08T01:37:07;27.27;;;10.07;;
75005;SDS011;63553;51.814;4.600;2024-03-08T01:39:32;26.63;;;10.45;;
75005;SDS011;63553;51.814;4.600;2024-03-08T01:41:58;24.92;;;9.45;;
75005;SDS011;63553;51.814;4.600;2024-03-08T01:44:23;21.65;;;9.65;;
75005;SDS011;63553;51.814;4.600;2024-03-08T01:46:49;22.73;;;10.43;;
75005;SDS011;63553;51.814;4.600;2024-03-08T01:49:18;13.23;;;7.32;;
75005;SDS011;63553;51.814;4.600;2024-03-08T01:51:45;21.70;;;8.73;;
75005;SDS011;63553;51.814;4.600;2024-03-08T01:54:12;22.17;;;10.38;;
75005;SDS011;63553;51.814;4.600;2024-03-08T01:56:39;25.20;;;11.23;;
75005;SDS011;63553;51.814;4.600;2024-03-08T01:59:04;23.00;;;9.73;;
75005;SDS011;63553;51.814;4.600;2024-03-08T02:01:32;22.65;;;9.57;;
75005;SDS011;63553;51.814;4.600;2024-03-08T02:03:58;23.20;;;10.70;;
75005;SDS011;63553;51.814;4.600;2024-03-08T02:06:23;19.40;;;9.07;;
75005;SDS011;63553;51.814;4.600;2024-03-08T02:08:49;21.30;;;10.35;;
75005;SDS011;63553;51.814;4.600;2024-03-08T02:11:14;24.90;;;10.35;;
75005;SDS011;63553;51.814;4.600;2024-03-08T02:13:40;19.25;;;9.38;;
75005;SDS011;63553;51.814;4.600;2024-03-08T02:16:06;18.98;;;7.68;;
75005;SDS011;63553;51.814;4.600;2024-03-08T02:18:33;25.05;;;11.13;;
75005;SDS011;63553;51.814;4.600;2024-03-08T02:20:59;18.83;;;9.73;;
75005;SDS011;63553;51.814;4.600;2024-03-08T02:23:27;20.23;;;9.57;;
75005;SDS011;63553;51.814;4.600;2024-03-08T02:25:53;24.00;;;10.25;;
75005;SDS011;63553;51.814;4.600;2024-03-08T02:28:20;28.00;;;10.35;;
75005;SDS011;63553;51.814;4.600;2024-03-08T02:30:46;18.27;;;9.35;;
75005;SDS011;63553;51.814;4.600;2024-03-08T02:33:15;21.10;;;9.40;;
75005;SDS011;63553;51.814;4.600;2024-03-08T02:35:44;19.23;;;9.75;;
75005;SDS011;63553;51.814;4.600;2024-03-08T02:38:13;17.98;;;9.30;;
75005;SDS011;63553;51.814;4.600;2024-03-08T02:40:41;26.20;;;10.63;;
75005;SDS011;63553;51.814;4.600;2024-03-08T02:43:08;22.88;;;9.55;;
75005;SDS011;63553;51.814;4.600;2024-03-08T02:45:33;13.80;;;8.02;;
75005;SDS011;63553;51.814;4.600;2024-03-08T02:47:59;20.83;;;10.30;;
75005;SDS011;63553;51.814;4.600;2024-03-08T02:50:25;16.45;;;8.07;;
75005;SDS011;63553;51.814;4.600;2024-03-08T02:52:51;21.50;;;9.03;;
75005;SDS011;63553;51.814;4.600;2024-03-08T02:55:16;19.13;;;9.40;;
75005;SDS011;63553;51.814;4.600;2024-03-08T02:57:41;19.93;;;9.33;;
75005;SDS011;63553;51.814;4.600;2024-03-08T03:00:08;21.98;;;11.23;;
75005;SDS011;63553;51.814;4.600;2024-03-08T03:02:34;22.70;;;11.52;;
75005;SDS011;63553;51.814;4.600;2024-03-08T03:05:00;18.42;;;8.98;;
75005;SDS011;63553;51.814;4.600;2024-03-08T03:07:30;18.73;;;9.82;;
75005;SDS011;63553;51.814;4.600;2024-03-08T03:09:55;23.25;;;10.07;;
75005;SDS011;63553;51.814;4.600;2024-03-08T03:12:21;23.07;;;10.97;;
75005;SDS011;63553;51.814;4.600;2024-03-08T03:14:46;15.70;;;8.60;;
75005;SDS011;63553;51.814;4.600;2024-03-08T03:17:12;22.95;;;10.23;;
75005;SDS011;63553;51.814;4.600;2024-03-08T03:19:40;20.87;;;9.67;;
75005;SDS011;63553;51.814;4.600;2024-03-08T03:22:05;11.73;;;6.47;;
75005;SDS011;63553;51.814;4.600;2024-03-08T03:24:32;18.95;;;8.77;;
75005;SDS011;63553;51.814;4.600;2024-03-08T03:26:58;22.98;;;10.77;;
75005;SDS011;63553;51.814;4.600;2024-03-08T03:29:24;21.45;;;10.30;;
75005;SDS011;63553;51.814;4.600;2024-03-08T03:31:50;21.65;;;10.05;;
75005;SDS011;63553;51.814;4.600;2024-03-08T03:34:15;26.02;;;10.40;;
75005;SDS011;63553;51.814;4.600;2024-03-08T03:36:41;15.60;;;7.40;;
75005;SDS011;63553;51.814;4.600;2024-03-08T03:39:10;22.42;;;10.93;;
75005;SDS011;63553;51.814;4.600;2024-03-08T03:41:37;21.95;;;10.13;;
75005;SDS011;63553;51.814;4.600;2024-03-08T03:44:03;19.45;;;10.13;;
75005;SDS011;63553;51.814;4.600;2024-03-08T03:46:30;19.27;;;9.48;;
75005;SDS011;63553;51.814;4.600;2024-03-08T03:48:55;21.98;;;9.85;;
75005;SDS011;63553;51.814;4.600;2024-03-08T03:51:21;21.80;;;10.10;;
75005;SDS011;63553;51.814;4.600;2024-03-08T03:53:46;20.13;;;8.93;;
75005;SDS011;63553;51.814;4.600;2024-03-08T03:56:12;26.75;;;11.52;;
75005;SDS011;63553;51.814;4.600;2024-03-08T03:58:37;20.92;;;10.05;;
75005;SDS011;63553;51.814;4.600;2024-03-08T04:01:06;19.87;;;10.37;;
75005;SDS011;63553;51.814;4.600;2024-03-08T04:03:31;19.58;;;10.35;;
75005;SDS011;63553;51.814;4.600;2024-03-08T04:05:56;22.80;;;10.88;;
75005;SDS011;63553;51.814;4.600;2024-03-08T04:08:22;18.67;;;9.73;;
75005;SDS011;63553;51.814;4.600;2024-03-08T04:10:48;19.38;;;9.63;;
75005;SDS011;63553;51.814;4.600;2024-03-08T04:13:14;17.92;;;7.30;;
75005;SDS011;63553;51.814;4.600;2024-03-08T04:15:40;17.08;;;8.95;;
75005;SDS011;63553;51.814;4.600;2024-03-08T04:18:09;27.38;;;11.88;;
75005;SDS011;63553;51.814;4.600;2024-03-08T04:20:34;21.73;;;9.32;;
75005;SDS011;63553;51.814;4.600;2024-03-08T04:22:59;21.07;;;10.97;;
75005;SDS011;63553;51.814;4.600;2024-03-08T04:25:25;18.13;;;8.73;;
75005;SDS011;63553;51.814;4.600;2024-03-08T04:27:50;18.30;;;9.97;;
75005;SDS011;63553;51.814;4.600;2024-03-08T04:30:17;23.70;;;9.68;;
75005;SDS011;63553;51.814;4.600;2024-03-08T04:32:43;20.55;;;10.88;;
75005;SDS011;63553;51.814;4.600;2024-03-08T04:35:08;19.38;;;6.85;;
75005;SDS011;63553;51.814;4.600;2024-03-08T04:37:34;14.65;;;5.88;;
75005;SDS011;63553;51.814;4.600;2024-03-08T04:39:59;25.57;;;10.73;;
75005;SDS011;63553;51.814;4.600;2024-03-08T04:42:25;27.23;;;12.03;;
75005;SDS011;63553;51.814;4.600;2024-03-08T04:44:52;20.52;;;9.35;;
75005;SDS011;63553;51.814;4.600;2024-03-08T04:47:18;12.82;;;6.25;;
75005;SDS011;63553;51.814;4.600;2024-03-08T04:49:44;24.52;;;10.98;;
75005;SDS011;63553;51.814;4.600;2024-03-08T04:52:09;15.52;;;7.97;;
75005;SDS011;63553;51.814;4.600;2024-03-08T04:54:34;21.83;;;9.27;;
75005;SDS011;63553;51.814;4.600;2024-03-08T04:57:00;9.10;;;5.07;;
75005;SDS011;63553;51.814;4.600;2024-03-08T04:59:28;9.82;;;5.05;;
75005;SDS011;63553;51.814;4.600;2024-03-08T05:01:54;11.38;;;7.18;;
75005;SDS011;63553;51.814;4.600;2024-03-08T05:04:19;13.27;;;6.57;;
75005;SDS011;63553;51.814;4.600;2024-03-08T05:06:45;10.63;;;5.82;;
75005;SDS011;63553;51.814;4.600;2024-03-08T05:09:10;21.07;;;9.83;;
75005;SDS011;63553;51.814;4.600;2024-03-08T05:11:39;13.05;;;6.45;;
75005;SDS011;63553;51.814;4.600;2024-03-08T05:14:05;13.82;;;7.32;;
75005;SDS011;63553;51.814;4.600;2024-03-08T05:16:31;19.55;;;10.15;;
75005;SDS011;63553;51.814;4.600;2024-03-08T05:18:56;6.67;;;4.03;;
75005;SDS011;63553;51.814;4.600;2024-03-08T05:21:22;13.32;;;6.35;;
75005;SDS011;63553;51.814;4.600;2024-03-08T05:23:48;18.48;;;9.27;;
75005;SDS011;63553;51.814;4.600;2024-03-08T05:26:15;15.30;;;7.78;;
75005;SDS011;63553;51.814;4.600;2024-03-08T05:28:40;9.77;;;5.97;;
75005;SDS011;63553;51.814;4.600;2024-03-08T05:31:06;6.43;;;4.77;;
75005;SDS011;63553;51.814;4.600;2024-03-08T05:33:31;20.27;;;8.75;;
75005;SDS011;63553;51.814;4.600;2024-03-08T05:35:59;19.05;;;9.77;;
75005;SDS011;63553;51.814;4.600;2024-03-08T05:38:25;15.07;;;8.35;;
75005;SDS011;63553;51.814;4.600;2024-03-08T05:40:51;16.65;;;7.68;;
75005;SDS011;63553;51.814;4.600;2024-03-08T05:43:16;12.70;;;7.05;;
75005;SDS011;63553;51.814;4.600;2024-03-08T05:45:44;11.85;;;5.93;;
75005;SDS011;63553;51.814;4.600;2024-03-08T05:48:10;13.45;;;6.47;;
75005;SDS011;63553;51.814;4.600;2024-03-08T05:50:37;13.85;;;8.00;;
75005;SDS011;63553;51.814;4.600;2024-03-08T05:53:03;22.95;;;10.68;;
75005;SDS011;63553;51.814;4.600;2024-03-08T05:55:31;12.90;;;6.53;;
75005;SDS011;63553;51.814;4.600;2024-03-08T05:58:00;14.80;;;8.35;;
75005;SDS011;63553;51.814;4.600;2024-03-08T06:00:28;6.15;;;4.68;;
75005;SDS011;63553;51.814;4.600;2024-03-08T06:02:53;24.33;;;11.05;;
75005;SDS011;63553;51.814;4.600;2024-03-08T06:05:19;13.53;;;7.03;;
75005;SDS011;63553;51.814;4.600;2024-03-08T06:07:44;10.73;;;5.95;;
75005;SDS011;63553;51.814;4.600;2024-03-08T06:10:10;13.97;;;7.37;;
75005;SDS011;63553;51.814;4.600;2024-03-08T06:12:37;4.60;;;4.03;;
75005;SDS011;63553;51.814;4.600;2024-03-08T06:15:09;11.88;;;6.50;;
75005;SDS011;63553;51.814;4.600;2024-03-08T06:17:35;13.48;;;5.75;;
75005;SDS011;63553;51.814;4.600;2024-03-08T06:20:01;18.83;;;8.90;;
75005;SDS011;63553;51.814;4.600;2024-03-08T06:22:28;15.68;;;7.78;;
75005;SDS011;63553;51.814;4.600;2024-03-08T06:24:55;21.55;;;9.10;;
75005;SDS011;63553;51.814;4.600;2024-03-08T06:27:20;11.27;;;6.32;;
75005;SDS011;63553;51.814;4.600;2024-03-08T06:29:46;15.60;;;7.67;;
75005;SDS011;63553;51.814;4.600;2024-03-08T06:32:14;20.25;;;8.50;;
75005;SDS011;63553;51.814;4.600;2024-03-08T06:34:40;14.30;;;7.53;;
75005;SDS011;63553;51.814;4.600;2024-03-08T06:37:06;17.02;;;7.25;;
75005;SDS011;63553;51.814;4.600;2024-03-08T06:39:31;14.67;;;8.17;;
75005;SDS011;63553;51.814;4.600;2024-03-08T06:41:57;20.00;;;9.00;;
75005;SDS011;63553;51.814;4.600;2024-03-08T06:44:23;22.02;;;11.93;;
75005;SDS011;63553;51.814;4.600;2024-03-08T06:46:48;26.77;;;10.67;;
75005;SDS011;63553;51.814;4.600;2024-03-08T06:49:14;24.40;;;10.35;;
75005;SDS011;63553;51.814;4.600;2024-03-08T06:51:40;19.35;;;9.98;;
75005;SDS011;63553;51.814;4.600;2024-03-08T06:54:06;17.27;;;9.32;;
75005;SDS011;63553;51.814;4.600;2024-03-08T06:56:33;15.73;;;8.88;;
75005;SDS011;63553;51.814;4.600;2024-03-08T06:58:59;16.40;;;8.25;;
75005;SDS011;63553;51.814;4.600;2024-03-08T07:01:24;15.43;;;8.02;;
75005;SDS011;63553;51.814;4.600;2024-03-08T07:03:50;19.30;;;8.93;;
75005;SDS011;63553;51.814;4.600;2024-03-08T07:06:17;15.30;;;8.45;;
75005;SDS011;63553;51.814;4.600;2024-03-08T07:08:44;13.07;;;7.95;;
75005;SDS011;63553;51.814;4.600;2024-03-08T07:11:11;15.27;;;8.25;;
75005;SDS011;63553;51.814;4.600;2024-03-08T07:13:36;19.27;;;8.80;;
75005;SDS011;63553;51.814;4.600;2024-03-08T07:16:04;15.10;;;8.38;;
75005;SDS011;63553;51.814;4.600;2024-03-08T07:18:30;16.10;;;8.45;;
75005;SDS011;63553;51.814;4.600;2024-03-08T07:20:56;16.13;;;8.20;;
75005;SDS011;63553;51.814;4.600;2024-03-08T07:23:22;14.30;;;8.88;;
75005;SDS011;63553;51.814;4.600;2024-03-08T07:26:06;13.63;;;8.35;;
75005;SDS011;63553;51.814;4.600;2024-03-08T07:28:31;12.73;;;8.17;;
75005;SDS011;63553;51.814;4.600;2024-03-08T07:30:57;11.53;;;7.70;;
75005;SDS011;63553;51.814;4.600;2024-03-08T07:33:46;12.38;;;7.57;;
75005;SDS011;63553;51.814;4.600;2024-03-08T07:36:11;11.15;;;7.78;;
75005;SDS011;63553;51.814;4.600;2024-03-08T07:38:37;10.37;;;7.87;;
75005;SDS011;63553;51.814;4.600;2024-03-08T07:41:02;11.02;;;7.55;;
75005;SDS011;63553;51.814;4.600;2024-03-08T07:43:28;11.48;;;7.65;;
75005;SDS011;63553;51.814;4.600;2024-03-08T07:45:53;10.37;;;7.40;;
75005;SDS011;63553;51.814;4.600;2024-03-08T07:48:20;10.00;;;7.28;;
75005;SDS011;63553;51.814;4.600;2024-03-08T07:50:46;11.00;;;7.55;;
75005;SDS011;63553;51.814;4.600;2024-03-08T07:53:11;11.20;;;7.95;;
75005;SDS011;63553;51.814;4.600;2024-03-08T07:55:37;10.90;;;8.00;;
75005;SDS011;63553;51.814;4.600;2024-03-08T07:58:02;11.52;;;7.20;;
75005;SDS011;63553;51.814;4.600;2024-03-08T08:00:28;12.27;;;8.88;;
75005;SDS011;63553;51.814;4.600;2024-03-08T08:02:55;11.43;;;7.82;;
75005;SDS011;63553;51.814;4.600;2024-03-08T08:05:21;10.93;;;8.38;;
75005;SDS011;63553;51.814;4.600;2024-03-08T08:07:46;9.48;;;7.78;;
75005;SDS011;63553;51.814;4.600;2024-03-08T08:10:14;8.38;;;7.32;;
75005;SDS011;63553;51.814;4.600;2024-03-08T08:12:46;11.90;;;8.07;;
75005;SDS011;63553;51.814;4.600;2024-03-08T08:15:12;9.35;;;7.57;;
75005;SDS011;63553;51.814;4.600;2024-03-08T08:17:38;9.98;;;7.07;;
75005;SDS011;63553;51.814;4.600;2024-03-08T08:20:04;9.55;;;7.65;;
75005;SDS011;63553;51.814;4.600;2024-03-08T08:22:30;11.30;;;8.50;;
75005;SDS011;63553;51.814;4.600;2024-03-08T08:24:56;11.00;;;8.10;;
75005;SDS011;63553;51.814;4.600;2024-03-08T08:27:21;9.63;;;7.82;;
75005;SDS011;63553;51.814;4.600;2024-03-08T08:29:46;9.55;;;8.13;;
75005;SDS011;63553;51.814;4.600;2024-03-08T08:32:12;8.48;;;7.60;;
75005;SDS011;63553;51.814;4.600;2024-03-08T08:34:38;10.45;;;8.05;;
75005;SDS011;63553;51.814;4.600;2024-03-08T08:37:03;12.03;;;7.93;;
75005;SDS011;63553;51.814;4.600;2024-03-08T08:39:28;10.23;;;7.87;;
75005;SDS011;63553;51.814;4.600;2024-03-08T08:41:54;10.10;;;7.75;;
75005;SDS011;63553;51.814;4.600;2024-03-08T08:44:19;8.77;;;7.33;;
75005;SDS011;63553;51.814;4.600;2024-03-08T08:46:45;11.35;;;8.52;;
75005;SDS011;63553;51.814;4.600;2024-03-08T08:49:10;8.48;;;7.57;;
75005;SDS011;63553;51.814;4.600;2024-03-08T08:51:39;10.52;;;8.15;;
75005;SDS011;63553;51.814;4.600;2024-03-08T08:54:04;9.70;;;8.63;;
75005;SDS011;63553;51.814;4.600;2024-03-08T08:56:31;10.20;;;8.48;;
75005;SDS011;63553;51.814;4.600;2024-03-08T08:58:56;9.35;;;8.35;;
75005;SDS011;63553;51.814;4.600;2024-03-08T09:01:23;10.23;;;8.20;;
75005;SDS011;63553;51.814;4.600;2024-03-08T09:03:48;10.55;;;9.10;;
75005;SDS011;63553;51.814;4.600;2024-03-08T09:06:15;14.20;;;8.73;;
75005;SDS011;63553;51.814;4.600;2024-03-08T09:08:41;9.88;;;8.23;;
75005;SDS011;63553;51.814;4.600;2024-03-08T09:11:07;10.75;;;8.40;;
75005;SDS011;63553;51.814;4.600;2024-03-08T09:13:32;9.52;;;8.27;;
75005;SDS011;63553;51.814;4.600;2024-03-08T09:16:01;11.40;;;8.85;;
75005;SDS011;63553;51.814;4.600;2024-03-08T09:18:27;9.77;;;8.05;;
75005;SDS011;63553;51.814;4.600;2024-03-08T09:20:54;12.88;;;8.60;;
75005;SDS011;63553;51.814;4.600;2024-03-08T09:23:19;9.95;;;8.77;;
75005;SDS011;63553;51.814;4.600;2024-03-08T09:25:45;9.57;;;8.63;;
75005;SDS011;63553;51.814;4.600;2024-03-08T09:28:11;9.75;;;8.15;;
75005;SDS011;63553;51.814;4.600;2024-03-08T09:30:37;11.27;;;9.00;;
75005;SDS011;63553;51.814;4.600;2024-03-08T09:33:03;11.48;;;8.32;;
75005;SDS011;63553;51.814;4.600;2024-03-08T09:35:29;8.82;;;7.63;;
75005;SDS011;63553;51.814;4.600;2024-03-08T09:37:55;9.88;;;8.40;;
75005;SDS011;63553;51.814;4.600;2024-03-08T09:40:20;9.25;;;8.10;;
75005;SDS011;63553;51.814;4.600;2024-03-08T09:42:48;14.13;;;9.02;;
75005;SDS011;63553;51.814;4.600;2024-03-08T09:45:14;9.98;;;8.13;;
75005;SDS011;63553;51.814;4.600;2024-03-08T09:47:40;10.20;;;8.48;;
75005;SDS011;63553;51.814;4.600;2024-03-08T09:50:07;12.77;;;8.60;;
75005;SDS011;63553;51.814;4.600;2024-03-08T09:52:37;9.80;;;7.57;;
75005;SDS011;63553;51.814;4.600;2024-03-08T09:55:04;10.50;;;8.50;;
75005;SDS011;63553;51.814;4.600;2024-03-08T09:57:31;9.13;;;8.13;;
75005;SDS011;63553;51.814;4.600;2024-03-08T10:02:26;9.50;;;7.83;;
75005;SDS011;63553;51.814;4.600;2024-03-08T10:04:52;9.20;;;8.13;;
75005;SDS011;63553;51.814;4.600;2024-03-08T10:07:22;9.45;;;7.65;;
75005;SDS011;63553;51.814;4.600;2024-03-08T10:09:51;8.93;;;8.00;;
75005;SDS011;63553;51.814;4.600;2024-03-08T10:12:16;10.48;;;7.78;;
75005;SDS011;63553;51.814;4.600;2024-03-08T10:14:42;10.43;;;8.25;;
75005;SDS011;63553;51.814;4.600;2024-03-08T10:17:08;9.60;;;8.40;;
75005;SDS011;63553;51.814;4.600;2024-03-08T10:19:34;9.35;;;7.43;;
75005;SDS011;63553;51.814;4.600;2024-03-08T10:21:59;11.67;;;8.50;;
75005;SDS011;63553;51.814;4.600;2024-03-08T10:24:25;8.73;;;7.72;;
75005;SDS011;63553;51.814;4.600;2024-03-08T10:26:53;9.93;;;8.20;;
75005;SDS011;63553;51.814;4.600;2024-03-08T10:29:26;9.57;;;7.72;;
75005;SDS011;63553;51.814;4.600;2024-03-08T10:31:51;11.55;;;8.13;;
75005;SDS011;63553;51.814;4.600;2024-03-08T10:34:17;9.00;;;7.53;;
75005;SDS011;63553;51.814;4.600;2024-03-08T10:36:42;9.93;;;7.93;;
75005;SDS011;63553;51.814;4.600;2024-03-08T10:39:16;11.85;;;8.48;;
75005;SDS011;63553;51.814;4.600;2024-03-08T10:41:49;12.18;;;8.63;;
75005;SDS011;63553;51.814;4.600;2024-03-08T10:49:31;11.15;;;8.45;;
75005;SDS011;63553;51.814;4.600;2024-03-08T10:52:02;10.82;;;8.52;;
75005;SDS011;63553;51.814;4.600;2024-03-08T10:54:28;8.93;;;7.57;;
75005;SDS011;63553;51.814;4.600;2024-03-08T10:56:56;11.55;;;8.45;;
75005;SDS011;63553;51.814;4.600;2024-03-08T10:59:22;9.55;;;8.52;;
75005;SDS011;63553;51.814;4.600;2024-03-08T11:01:50;11.75;;;8.85;;
75005;SDS011;63553;51.814;4.600;2024-03-08T11:04:16;13.02;;;9.05;;
75005;SDS011;63553;51.814;4.600;2024-03-08T11:06:46;10.50;;;8.23;;
75005;SDS011;63553;51.814;4.600;2024-03-08T11:09:28;10.65;;;8.27;;
75005;SDS011;63553;51.814;4.600;2024-03-08T11:12:40;11.30;;;7.70;;
75005;SDS011;63553;51.814;4.600;2024-03-08T11:15:16;20.52;;;7.63;;
75005;SDS011;63553;51.814;4.600;2024-03-08T11:17:49;13.30;;;7.20;;
75005;SDS011;63553;51.814;4.600;2024-03-08T11:20:17;17.02;;;7.65;;
75005;SDS011;63553;51.814;4.600;2024-03-08T11:25:49;10.55;;;7.65;;
75005;SDS011;63553;51.814;4.600;2024-03-08T11:28:19;13.45;;;7.90;;
75005;SDS011;63553;51.814;4.600;2024-03-08T11:33:13;11.25;;;7.15;;
75005;SDS011;63553;51.814;4.600;2024-03-08T11:35:40;9.57;;;6.90;;
75005;SDS011;63553;51.814;4.600;2024-03-08T11:38:07;10.98;;;7.30;;
75005;SDS011;63553;51.814;4.600;2024-03-08T11:40:34;9.45;;;6.90;;
75005;SDS011;63553;51.814;4.600;2024-03-08T11:43:00;9.23;;;7.05;;
75005;SDS011;63553;51.814;4.600;2024-03-08T11:45:29;10.98;;;7.78;;
75005;SDS011;63553;51.814;4.600;2024-03-08T11:47:54;11.85;;;7.78;;
75005;SDS011;63553;51.814;4.600;2024-03-08T11:50:20;10.43;;;7.43;;
75005;SDS011;63553;51.814;4.600;2024-03-08T11:52:48;14.45;;;7.57;;
75005;SDS011;63553;51.814;4.600;2024-03-08T11:55:14;11.50;;;7.72;;
75005;SDS011;63553;51.814;4.600;2024-03-08T11:57:39;12.57;;;7.53;;
75005;SDS011;63553;51.814;4.600;2024-03-08T12:00:14;13.40;;;7.78;;
75005;SDS011;63553;51.814;4.600;2024-03-08T12:02:46;12.68;;;7.95;;
75005;SDS011;63553;51.814;4.600;2024-03-08T12:05:15;9.70;;;6.80;;
75005;SDS011;63553;51.814;4.600;2024-03-08T12:07:41;11.77;;;7.40;;
75005;SDS011;63553;51.814;4.600;2024-03-08T12:10:20;11.50;;;7.43;;
75005;SDS011;63553;51.814;4.600;2024-03-08T12:12:50;11.18;;;8.07;;
75005;SDS011;63553;51.814;4.600;2024-03-08T12:15:21;12.30;;;7.30;;
75005;SDS011;63553;51.814;4.600;2024-03-08T12:17:49;9.80;;;7.13;;
75005;SDS011;63553;51.814;4.600;2024-03-08T12:20:17;10.57;;;6.75;;
75005;SDS011;63553;51.814;4.600;2024-03-08T12:22:44;9.75;;;7.00;;
75005;SDS011;63553;51.814;4.600;2024-03-08T12:25:12;9.95;;;7.30;;
75005;SDS011;63553;51.814;4.600;2024-03-08T12:27:39;12.93;;;7.45;;
75005;SDS011;63553;51.814;4.600;2024-03-08T12:30:21;11.20;;;7.38;;
75005;SDS011;63553;51.814;4.600;2024-03-08T12:32:57;10.90;;;7.53;;
75005;SDS011;63553;51.814;4.600;2024-03-08T12:35:24;10.27;;;6.80;;
75005;SDS011;63553;51.814;4.600;2024-03-08T12:37:55;11.68;;;6.75;;
75005;SDS011;63553;51.814;4.600;2024-03-08T12:40:31;11.27;;;7.82;;
75005;SDS011;63553;51.814;4.600;2024-03-08T12:42:59;11.45;;;6.95;;
75005;SDS011;63553;51.814;4.600;2024-03-08T12:45:26;11.80;;;7.78;;
75005;SDS011;63553;51.814;4.600;2024-03-08T12:47:52;10.73;;;7.07;;
75005;SDS011;63553;51.814;4.600;2024-03-08T12:50:19;10.63;;;7.03;;
75005;SDS011;63553;51.814;4.600;2024-03-08T12:52:45;9.73;;;6.60;;
75005;SDS011;63553;51.814;4.600;2024-03-08T12:55:11;9.38;;;6.35;;
75005;SDS011;63553;51.814;4.600;2024-03-08T12:57:37;14.57;;;7.72;;
75005;SDS011;63553;51.814;4.600;2024-03-08T13:00:03;12.48;;;6.68;;
75005;SDS011;63553;51.814;4.600;2024-03-08T13:02:29;9.23;;;6.78;;
75005;SDS011;63553;51.814;4.600;2024-03-08T13:04:57;12.85;;;7.30;;
75005;SDS011;63553;51.814;4.600;2024-03-08T13:07:24;11.32;;;7.28;;
75005;SDS011;63553;51.814;4.600;2024-03-08T13:09:53;10.77;;;7.10;;
75005;SDS011;63553;51.814;4.600;2024-03-08T13:12:19;10.57;;;7.40;;
75005;SDS011;63553;51.814;4.600;2024-03-08T13:14:45;12.65;;;7.80;;
75005;SDS011;63553;51.814;4.600;2024-03-08T13:17:12;11.75;;;7.70;;
75005;SDS011;63553;51.814;4.600;2024-03-08T13:19:37;9.73;;;6.78;;
75005;SDS011;63553;51.814;4.600;2024-03-08T13:22:03;13.40;;;7.45;;
75005;SDS011;63553;51.814;4.600;2024-03-08T13:24:29;10.13;;;7.10;;
75005;SDS011;63553;51.814;4.600;2024-03-08T13:26:55;9.30;;;6.90;;
75005;SDS011;63553;51.814;4.600;2024-03-08T13:29:20;11.68;;;7.82;;
75005;SDS011;63553;51.814;4.600;2024-03-08T13:31:46;8.77;;;6.43;;
75005;SDS011;63553;51.814;4.600;2024-03-08T13:34:16;10.68;;;7.38;;
75005;SDS011;63553;51.814;4.600;2024-03-08T13:36:42;14.10;;;6.90;;
75005;SDS011;63553;51.814;4.600;2024-03-08T13:39:09;13.35;;;7.43;;
75005;SDS011;63553;51.814;4.600;2024-03-08T13:41:40;13.02;;;7.20;;
75005;SDS011;63553;51.814;4.600;2024-03-08T13:44:06;11.80;;;7.60;;
75005;SDS011;63553;51.814;4.600;2024-03-08T13:46:32;10.68;;;7.22;;
75005;SDS011;63553;51.814;4.600;2024-03-08T13:48:58;11.90;;;7.47;;
75005;SDS011;63553;51.814;4.600;2024-03-08T13:54:00;14.03;;;7.23;;
75005;SDS011;63553;51.814;4.600;2024-03-08T13:56:25;10.57;;;6.82;;
75005;SDS011;63553;51.814;4.600;2024-03-08T13:58:52;13.23;;;7.53;;
75005;SDS011;63553;51.814;4.600;2024-03-08T14:01:17;12.20;;;8.32;;
75005;SDS011;63553;51.814;4.600;2024-03-08T14:03:43;14.70;;;8.93;;
75005;SDS011;63553;51.814;4.600;2024-03-08T14:06:08;13.27;;;8.47;;
75005;SDS011;63553;51.814;4.600;2024-03-08T14:08:34;13.20;;;8.38;;
75005;SDS011;63553;51.814;4.600;2024-03-08T14:11:03;14.88;;;8.82;;
75005;SDS011;63553;51.814;4.600;2024-03-08T14:13:36;14.25;;;8.30;;
75005;SDS011;63553;51.814;4.600;2024-03-08T14:16:05;12.98;;;8.63;;
75005;SDS011;63553;51.814;4.600;2024-03-08T14:18:35;12.73;;;8.20;;
75005;SDS011;63553;51.814;4.600;2024-03-08T14:21:00;16.10;;;9.25;;
75005;SDS011;63553;51.814;4.600;2024-03-08T14:23:26;14.18;;;8.43;;
75005;SDS011;63553;51.814;4.600;2024-03-08T14:25:52;14.65;;;8.25;;
75005;SDS011;63553;51.814;4.600;2024-03-08T14:28:17;14.57;;;7.93;;
75005;SDS011;63553;51.814;4.600;2024-03-08T14:30:44;13.93;;;8.25;;
75005;SDS011;63553;51.814;4.600;2024-03-08T14:33:09;14.45;;;8.77;;
75005;SDS011;63553;51.814;4.600;2024-03-08T14:35:35;10.70;;;7.45;;
75005;SDS011;63553;51.814;4.600;2024-03-08T14:38:01;12.25;;;7.70;;
75005;SDS011;63553;51.814;4.600;2024-03-08T14:40:27;11.98;;;7.60;;
75005;SDS011;63553;51.814;4.600;2024-03-08T14:42:52;11.40;;;7.72;;
75005;SDS011;63553;51.814;4.600;2024-03-08T14:45:19;13.07;;;8.40;;
75005;SDS011;63553;51.814;4.600;2024-03-08T14:47:48;12.30;;;7.93;;